Rusk, Wisconsin
Current Conditions -  °F | °C
As of 7:35 AM on Saturday 25 Oct 2014 (Local Time) from KLUM Reporting Station
Clear Clear  
Wind Chill: 46°   Ceiling: Unl
Heat Index: 48°   Visibility: 10mi
Dew Point: 36°   Wind: 5mph
Humidity: 62%   Direction: 280°W
Pressure: 29.95"   Gusts: NA
Location:  44.857°N, 92.0071°W
Report Text: KLUM 251235Z AUTO 28004KT 10SM CLR 09/02 A2995 RMK AO2 T00900020
Loading
Personal Weather Stations






























Interactive Weather Map
Tropical Storm Tracking
New forecast layout! Learn more

10-Day Weather Forecast

Advertisements
Track Severe Weather on mobile